createdAt,value
2018-12-16T00:02:19.816Z,16.30
2018-12-16T00:04:50.656Z,14.57
2018-12-16T00:07:21.509Z,13.97
2018-12-16T00:09:50.377Z,14.70
2018-12-16T00:12:19.272Z,14.40
2018-12-16T00:14:48.282Z,14.37
2018-12-16T00:17:18.288Z,15.30
2018-12-16T00:19:47.164Z,14.20
2018-12-16T00:22:16.073Z,15.13
2018-12-16T00:24:44.933Z,14.03
2018-12-16T00:27:14.075Z,17.00
2018-12-16T00:29:43.055Z,14.57
2018-12-16T00:32:11.978Z,14.93
2018-12-16T00:34:40.820Z,15.03
2018-12-16T00:37:10.260Z,15.37
2018-12-16T00:39:39.117Z,16.33
2018-12-16T00:42:07.992Z,16.23
2018-12-16T00:44:36.902Z,16.77
2018-12-16T00:47:05.895Z,17.00
2018-12-16T00:49:34.814Z,16.40
2018-12-16T00:52:03.780Z,16.33
2018-12-16T00:54:33.276Z,16.40
2018-12-16T00:57:02.101Z,14.87
2018-12-16T00:59:31.101Z,13.80
2018-12-16T01:01:59.984Z,14.37
2018-12-16T01:04:28.948Z,14.23
2018-12-16T01:06:57.834Z,14.77
2018-12-16T01:09:27.117Z,15.40
2018-12-16T01:11:56.647Z,14.97
2018-12-16T01:14:25.532Z,17.77
2018-12-16T01:16:54.464Z,15.50
2018-12-16T01:19:23.296Z,15.13
2018-12-16T01:21:53.120Z,17.40
2018-12-16T01:24:22.108Z,15.67
2018-12-16T01:26:51.014Z,16.10
2018-12-16T01:29:19.888Z,14.67
2018-12-16T01:31:48.795Z,16.83
2018-12-16T01:34:17.685Z,14.33
2018-12-16T01:36:46.565Z,14.87
2018-12-16T01:39:15.452Z,14.90
2018-12-16T01:41:44.344Z,14.40
2018-12-16T01:44:13.225Z,14.13
2018-12-16T01:46:42.117Z,13.73
2018-12-16T01:49:11.017Z,12.87
2018-12-16T01:51:39.952Z,15.47
2018-12-16T01:54:08.783Z,15.40
2018-12-16T01:56:37.677Z,15.03
2018-12-16T01:59:06.552Z,14.93
2018-12-16T02:01:35.441Z,16.60
2018-12-16T02:04:04.369Z,16.50
2018-12-16T02:06:33.461Z,17.57
2018-12-16T02:09:02.633Z,15.57
2018-12-16T02:11:33.549Z,15.83
2018-12-16T02:14:03.378Z,17.50
2018-12-16T02:16:32.211Z,15.47
2018-12-16T02:19:01.073Z,16.97
2018-12-16T02:21:29.978Z,17.33
2018-12-16T02:23:58.784Z,15.83
2018-12-16T02:26:27.644Z,17.80
2018-12-16T02:28:56.534Z,16.20
2018-12-16T02:31:25.966Z,20.33
2018-12-16T02:33:55.337Z,18.93
2018-12-16T02:36:24.241Z,17.90
2018-12-16T02:38:53.068Z,17.33
2018-12-16T02:41:21.907Z,17.60
2018-12-16T02:43:50.729Z,18.13
2018-12-16T02:46:19.600Z,17.90
2018-12-16T02:48:48.490Z,18.33
2018-12-16T02:51:17.550Z,18.13
2018-12-16T02:53:46.586Z,17.77
2018-12-16T02:56:15.450Z,18.97
2018-12-16T02:58:44.342Z,18.53
2018-12-16T03:01:13.241Z,18.73
2018-12-16T03:03:42.145Z,18.90
2018-12-16T03:06:12.553Z,17.73
2018-12-16T03:08:41.442Z,17.40
2018-12-16T03:11:10.409Z,17.43
2018-12-16T03:13:39.337Z,19.13
2018-12-16T03:16:08.338Z,17.73
2018-12-16T03:18:37.319Z,18.83
2018-12-16T03:21:06.188Z,19.07
2018-12-16T03:23:35.093Z,18.23
2018-12-16T03:26:04.201Z,17.83
2018-12-16T03:28:33.078Z,18.37
2018-12-16T03:31:01.969Z,17.90
2018-12-16T03:33:30.970Z,18.10
2018-12-16T03:35:59.858Z,17.80
2018-12-16T03:38:28.710Z,16.97
2018-12-16T03:40:57.685Z,17.90
2018-12-16T03:43:26.641Z,17.50
2018-12-16T03:45:55.530Z,17.87
2018-12-16T03:48:24.420Z,18.57
2018-12-16T03:50:53.400Z,17.33
2018-12-16T03:53:22.281Z,18.07
2018-12-16T03:55:51.187Z,19.53
2018-12-16T03:58:20.071Z,18.83
2018-12-16T04:00:49.065Z,20.07
2018-12-16T04:03:18.003Z,19.57
2018-12-16T04:05:46.989Z,19.93
2018-12-16T04:08:15.950Z,21.20
2018-12-16T04:10:44.837Z,19.23
2018-12-16T04:13:13.714Z,20.33
2018-12-16T04:15:42.748Z,18.40
2018-12-16T04:18:11.615Z,17.50
2018-12-16T04:20:40.503Z,20.03
2018-12-16T04:23:09.396Z,18.27
2018-12-16T04:25:38.404Z,17.77
2018-12-16T04:28:09.358Z,19.93
2018-12-16T04:30:38.412Z,19.20
2018-12-16T04:33:07.283Z,18.77
2018-12-16T04:35:36.207Z,18.87
2018-12-16T04:38:05.109Z,18.23
2018-12-16T04:40:34.214Z,19.60
2018-12-16T04:43:03.212Z,19.80
2018-12-16T04:45:32.084Z,20.73
2018-12-16T04:48:01.044Z,19.43
2018-12-16T04:50:29.937Z,19.80
2018-12-16T04:52:58.832Z,19.80
2018-12-16T04:55:27.772Z,20.57
2018-12-16T04:57:56.645Z,18.60
2018-12-16T05:00:25.818Z,18.20
2018-12-16T05:02:54.727Z,18.00
2018-12-16T05:05:23.680Z,19.13
2018-12-16T05:07:52.670Z,20.43
2018-12-16T05:10:28.322Z,18.17
2018-12-16T05:12:57.261Z,19.40
2018-12-16T05:15:26.272Z,20.10
2018-12-16T05:17:55.225Z,18.57
2018-12-16T05:20:24.204Z,20.50
2018-12-16T05:22:53.124Z,19.40
2018-12-16T05:25:21.964Z,18.87
2018-12-16T05:27:50.872Z,18.57
2018-12-16T05:30:19.811Z,19.27
2018-12-16T05:32:48.669Z,18.03
2018-12-16T05:35:17.477Z,19.60
2018-12-16T05:37:46.461Z,19.17
2018-12-16T05:40:15.337Z,18.83
2018-12-16T05:42:44.270Z,18.83
2018-12-16T05:45:13.174Z,17.40
2018-12-16T05:47:42.102Z,18.23
2018-12-16T05:50:11.373Z,19.83
2018-12-16T05:52:40.290Z,18.70
2018-12-16T05:55:09.181Z,19.13
2018-12-16T05:57:38.305Z,20.13
2018-12-16T06:00:08.281Z,18.90
2018-12-16T06:02:37.277Z,18.10
2018-12-16T06:05:06.397Z,20.13
2018-12-16T06:07:35.299Z,19.43
2018-12-16T06:10:04.504Z,18.67
2018-12-16T06:12:33.399Z,18.97
2018-12-16T06:20:19.653Z,17.73
2018-12-16T06:22:48.543Z,18.30
2018-12-16T06:25:17.665Z,17.17
2018-12-16T06:27:47.257Z,17.93
2018-12-16T06:30:16.585Z,16.73
2018-12-16T06:32:45.481Z,19.83
2018-12-16T06:35:14.352Z,18.00
2018-12-16T06:37:43.245Z,18.07
2018-12-16T06:40:12.142Z,17.87
2018-12-16T06:42:40.964Z,18.63
2018-12-16T06:45:10.505Z,18.93
2018-12-16T06:47:39.391Z,17.27
2018-12-16T06:50:08.652Z,16.17
2018-12-16T06:52:37.624Z,16.93
2018-12-16T06:55:06.820Z,16.67
2018-12-16T06:57:35.698Z,17.37
2018-12-16T07:00:05.542Z,16.73
2018-12-16T07:02:34.607Z,20.07
2018-12-16T07:05:03.683Z,20.03
2018-12-16T07:07:32.596Z,19.00
2018-12-16T07:10:02.031Z,18.70
2018-12-16T07:12:30.940Z,17.33
2018-12-16T07:14:59.898Z,17.93
2018-12-16T07:17:28.864Z,17.37
2018-12-16T07:19:57.820Z,17.97
2018-12-16T07:22:26.795Z,17.50
2018-12-16T07:24:55.771Z,18.60
2018-12-16T07:27:24.650Z,16.10
2018-12-16T07:29:53.620Z,18.23
2018-12-16T07:32:22.545Z,19.90
2018-12-16T07:34:51.416Z,17.30
2018-12-16T07:37:20.289Z,16.73
2018-12-16T07:39:49.204Z,17.53
2018-12-16T07:42:18.112Z,17.03
2018-12-16T07:44:46.982Z,15.60
2018-12-16T07:47:16.461Z,15.43
2018-12-16T07:49:45.394Z,17.30
2018-12-16T07:52:14.372Z,18.67
2018-12-16T07:54:43.244Z,17.27
2018-12-16T07:57:12.621Z,16.97
2018-12-16T07:59:42.469Z,17.23
2018-12-16T08:02:11.467Z,16.73
2018-12-16T08:04:40.401Z,16.90
2018-12-16T08:07:12.233Z,15.47
2018-12-16T08:09:41.068Z,17.50
2018-12-16T08:12:09.928Z,17.83
2018-12-16T08:14:38.884Z,18.00
2018-12-16T08:17:07.778Z,19.33
2018-12-16T08:19:36.751Z,16.73
2018-12-16T08:22:05.653Z,18.07
2018-12-16T08:24:34.641Z,18.07
2018-12-16T08:27:03.469Z,17.97
2018-12-16T08:29:32.413Z,17.00
2018-12-16T08:32:02.246Z,17.13
2018-12-16T08:34:31.452Z,18.00
2018-12-16T08:37:00.289Z,18.40
2018-12-16T08:39:29.321Z,16.93
2018-12-16T08:41:58.854Z,17.07
2018-12-16T08:44:28.906Z,17.00
2018-12-16T08:46:57.761Z,17.83
2018-12-16T08:49:26.561Z,18.07
2018-12-16T08:51:55.397Z,17.40
2018-12-16T08:54:30.086Z,16.77
2018-12-16T08:56:55.335Z,16.27
2018-12-16T08:59:24.165Z,17.20
2018-12-16T09:01:53.749Z,17.37
2018-12-16T09:04:22.802Z,17.37
2018-12-16T09:06:51.625Z,18.07
2018-12-16T09:09:20.934Z,18.53
2018-12-16T09:11:49.910Z,17.97
2018-12-16T09:14:18.813Z,17.80
2018-12-16T09:16:47.851Z,17.70
2018-12-16T09:19:16.716Z,16.43
2018-12-16T09:21:45.798Z,18.90
2018-12-16T09:24:14.630Z,19.30
2018-12-16T09:26:43.581Z,18.57
2018-12-16T09:29:12.462Z,16.67
2018-12-16T09:31:41.296Z,16.87
2018-12-16T09:34:10.257Z,18.93
2018-12-16T09:36:39.460Z,18.40
2018-12-16T09:39:08.884Z,16.40
2018-12-16T09:41:37.752Z,18.10
2018-12-16T09:44:06.724Z,17.70
2018-12-16T09:46:36.541Z,19.33
2018-12-16T09:49:05.456Z,18.00
2018-12-16T09:51:34.856Z,17.20
2018-12-16T09:54:04.606Z,18.13
2018-12-16T09:56:34.055Z,17.73
2018-12-16T09:59:03.427Z,15.73
2018-12-16T10:01:32.493Z,17.30
2018-12-16T10:04:01.324Z,19.37
2018-12-16T10:06:30.614Z,17.93
2018-12-16T10:08:59.938Z,18.03
2018-12-16T10:11:28.902Z,17.23
2018-12-16T10:13:57.810Z,18.57
2018-12-16T10:16:26.721Z,17.73
2018-12-16T10:18:55.585Z,17.63
2018-12-16T10:21:24.596Z,17.40
2018-12-16T10:23:53.483Z,14.77
2018-12-16T10:26:22.465Z,18.43
2018-12-16T10:28:51.355Z,20.40
2018-12-16T10:31:20.262Z,19.07
2018-12-16T10:33:49.200Z,18.83
2018-12-16T10:36:18.258Z,16.30
2018-12-16T10:38:47.097Z,16.53
2018-12-16T10:41:15.941Z,18.43
2018-12-16T10:43:45.636Z,17.70
2018-12-16T10:46:17.448Z,18.10
2018-12-16T10:48:46.465Z,18.07
2018-12-16T10:51:15.370Z,18.03
2018-12-16T10:53:45.361Z,16.90
2018-12-16T10:56:14.521Z,17.40
2018-12-16T10:58:44.394Z,16.50
2018-12-16T11:01:18.658Z,17.67
2018-12-16T11:03:47.561Z,17.13
2018-12-16T11:06:16.484Z,17.30
2018-12-16T11:08:45.933Z,17.83
2018-12-16T11:11:14.766Z,17.13
2018-12-16T11:13:43.668Z,17.90
2018-12-16T11:16:12.578Z,16.90
2018-12-16T11:18:41.557Z,17.20
2018-12-16T11:21:10.545Z,17.27
2018-12-16T11:23:39.444Z,18.83
2018-12-16T11:26:09.132Z,16.60
2018-12-16T11:28:38.133Z,16.70
2018-12-16T11:31:07.005Z,16.17
2018-12-16T11:33:37.623Z,18.57
2018-12-16T11:36:06.476Z,17.27
2018-12-16T11:38:35.343Z,16.60
2018-12-16T11:41:04.635Z,16.87
2018-12-16T11:43:33.668Z,16.57
2018-12-16T11:46:02.572Z,16.43
2018-12-16T11:48:31.460Z,16.17
2018-12-16T11:51:00.485Z,16.93
2018-12-16T11:53:29.401Z,18.13
2018-12-16T11:55:58.339Z,17.73
2018-12-16T11:58:27.333Z,17.70
2018-12-16T12:00:56.214Z,17.10
2018-12-16T12:03:25.044Z,18.73
2018-12-16T12:05:55.898Z,17.47
2018-12-16T12:08:24.834Z,16.20
2018-12-16T12:10:53.893Z,17.23
2018-12-16T12:13:22.777Z,16.97
2018-12-16T12:15:51.676Z,18.07
2018-12-16T12:18:20.544Z,17.90
2018-12-16T12:20:49.454Z,17.63
2018-12-16T12:23:18.358Z,16.50
2018-12-16T12:25:47.293Z,17.30
2018-12-16T12:28:16.394Z,17.17
2018-12-16T12:30:45.340Z,17.00
2018-12-16T12:33:14.703Z,16.10
2018-12-16T12:35:43.540Z,16.77
2018-12-16T12:38:12.494Z,18.27
2018-12-16T12:40:41.389Z,17.87
2018-12-16T12:43:10.216Z,17.67
2018-12-16T12:45:39.170Z,16.63
2018-12-16T12:48:08.013Z,16.90
2018-12-16T12:50:36.936Z,16.93
2018-12-16T12:53:05.837Z,16.73
2018-12-16T12:55:34.760Z,17.33
2018-12-16T12:58:03.803Z,17.37
2018-12-16T13:00:33.465Z,17.93
2018-12-16T13:03:02.547Z,18.50
2018-12-16T13:05:36.958Z,16.87
2018-12-16T13:08:02.372Z,19.50
2018-12-16T13:10:31.365Z,18.30
2018-12-16T13:13:00.340Z,18.27
2018-12-16T13:15:29.245Z,16.83
2018-12-16T13:17:58.077Z,17.83
2018-12-16T13:20:28.570Z,18.90
2018-12-16T13:22:57.696Z,17.77
2018-12-16T13:26:04.702Z,15.93
2018-12-16T13:28:33.628Z,17.17
2018-12-16T13:31:02.618Z,18.23
2018-12-16T13:33:31.518Z,17.87
2018-12-16T13:36:00.385Z,18.77
2018-12-16T13:38:29.432Z,17.63
2018-12-16T13:40:58.378Z,19.20
2018-12-16T13:43:27.284Z,18.23
2018-12-16T13:45:56.172Z,17.30
2018-12-16T13:48:25.037Z,18.87
2018-12-16T13:50:53.936Z,19.03
2018-12-16T13:53:22.848Z,18.70
2018-12-16T13:55:51.664Z,17.53
2018-12-16T13:58:20.510Z,16.97
2018-12-16T14:00:49.345Z,16.30
2018-12-16T14:03:18.185Z,18.10
2018-12-16T14:05:47.117Z,19.57
2018-12-16T14:08:16.796Z,20.50
2018-12-16T14:10:45.668Z,18.37
2018-12-16T14:13:14.554Z,18.93
2018-12-16T14:15:43.653Z,18.17
2018-12-16T14:18:12.478Z,17.80
2018-12-16T14:20:41.323Z,18.47
2018-12-16T14:23:10.264Z,17.57
2018-12-16T14:25:39.109Z,17.30
2018-12-16T14:28:08.121Z,19.40
2018-12-16T14:30:37.400Z,18.13
2018-12-16T14:33:06.512Z,18.07
2018-12-16T14:35:35.384Z,18.87
2018-12-16T14:38:04.792Z,19.70
2018-12-16T14:40:33.698Z,19.90
2018-12-16T14:43:02.614Z,18.07
2018-12-16T14:45:31.569Z,17.40
2018-12-16T14:48:00.526Z,18.47
2018-12-16T14:50:29.359Z,17.00
2018-12-16T14:52:58.341Z,18.53
2018-12-16T14:55:27.866Z,17.83
2018-12-16T14:57:56.698Z,18.60
2018-12-16T15:00:25.589Z,17.53
2018-12-16T15:02:55.642Z,17.60
2018-12-16T15:05:24.604Z,18.33
2018-12-16T15:07:53.775Z,18.57
2018-12-16T15:10:22.761Z,19.07
2018-12-16T15:12:51.705Z,18.57
2018-12-16T15:15:21.648Z,19.87
2018-12-16T15:17:50.598Z,17.57
2018-12-16T15:20:19.817Z,17.17
2018-12-16T15:22:48.601Z,18.87
2018-12-16T15:25:17.489Z,18.27
2018-12-16T15:27:46.313Z,17.47
2018-12-16T15:30:15.174Z,17.50
2018-12-16T15:32:44.286Z,17.10
2018-12-16T15:35:13.157Z,16.43
2018-12-16T15:37:42.057Z,18.37
2018-12-16T15:40:10.964Z,17.13
2018-12-16T15:42:39.937Z,16.40
2018-12-16T15:45:10.281Z,17.77
2018-12-16T15:47:39.310Z,17.77
2018-12-16T15:50:09.709Z,17.93
2018-12-16T15:52:38.674Z,17.57
2018-12-16T15:55:09.934Z,17.60
2018-12-16T15:57:40.787Z,19.03
2018-12-16T16:00:10.074Z,19.07
2018-12-16T16:02:39.208Z,17.80
2018-12-16T16:05:08.252Z,18.57
2018-12-16T16:07:37.769Z,17.40
2018-12-16T16:10:08.153Z,18.27
2018-12-16T16:12:37.073Z,16.87
2018-12-16T16:15:06.789Z,17.87
2018-12-16T16:17:35.704Z,16.43
2018-12-16T16:20:05.602Z,18.57
2018-12-16T16:22:34.580Z,17.93
2018-12-16T16:25:03.588Z,17.60
2018-12-16T16:27:32.580Z,17.93
2018-12-16T16:30:01.500Z,18.37
2018-12-16T16:32:31.580Z,15.93
2018-12-16T16:35:00.441Z,17.33
2018-12-16T16:37:29.361Z,19.03
2018-12-16T16:39:58.386Z,19.87
2018-12-16T16:42:27.348Z,19.20
2018-12-16T16:44:56.228Z,17.70
2018-12-16T16:47:24.278Z,19.00
2018-12-16T16:49:53.381Z,18.23
2018-12-16T16:52:22.292Z,17.90
2018-12-16T16:54:51.776Z,18.80
2018-12-16T16:57:20.698Z,18.83
2018-12-16T16:59:49.527Z,18.43
2018-12-16T17:02:19.380Z,17.60
2018-12-16T17:04:48.273Z,19.23
2018-12-16T17:07:17.137Z,17.93
2018-12-16T17:09:46.056Z,18.10
2018-12-16T17:12:14.941Z,17.77
2018-12-16T17:14:43.837Z,18.73
2018-12-16T17:17:12.722Z,18.47
2018-12-16T17:19:41.612Z,17.80
2018-12-16T17:22:10.510Z,18.60
2018-12-16T17:24:39.515Z,16.43
2018-12-16T17:27:08.495Z,18.40
2018-12-16T17:29:37.412Z,16.60
2018-12-16T17:32:06.307Z,16.40
2018-12-16T17:34:35.227Z,18.50
2018-12-16T17:37:04.065Z,18.93
2018-12-16T17:39:32.935Z,18.40
2018-12-16T17:42:01.832Z,17.50
2018-12-16T17:44:30.820Z,16.70
2018-12-16T17:46:59.705Z,17.53
2018-12-16T17:49:28.802Z,22.80
2018-12-16T17:51:58.613Z,19.67
2018-12-16T17:54:27.509Z,17.80
2018-12-16T17:56:56.392Z,18.33
2018-12-16T17:59:25.280Z,17.27
2018-12-16T18:01:54.480Z,17.47
2018-12-16T18:04:23.377Z,18.30
2018-12-16T18:06:52.260Z,17.23
2018-12-16T18:09:21.281Z,17.83
2018-12-16T18:11:50.245Z,18.13
2018-12-16T18:14:19.083Z,18.63
2018-12-16T18:16:49.364Z,16.60
2018-12-16T18:19:18.252Z,16.83
2018-12-16T18:21:47.584Z,15.67
2018-12-16T18:24:16.453Z,16.93
2018-12-16T18:26:45.441Z,16.80
2018-12-16T18:29:14.349Z,19.13
2018-12-16T18:31:43.212Z,18.67
2018-12-16T18:34:12.132Z,18.50
2018-12-16T18:36:41.020Z,18.80
2018-12-16T18:39:10.412Z,19.00
2018-12-16T18:41:40.295Z,18.87
2018-12-16T18:44:09.474Z,18.47
2018-12-16T18:46:38.370Z,16.23
2018-12-16T18:49:07.927Z,16.80
2018-12-16T18:51:37.179Z,15.30
2018-12-16T18:54:06.108Z,17.20
2018-12-16T18:56:35.104Z,15.13
2018-12-16T18:59:04.027Z,14.43
2018-12-16T19:01:32.938Z,16.30
2018-12-16T19:04:01.729Z,16.17
2018-12-16T19:06:31.070Z,16.73
2018-12-16T19:08:59.967Z,17.33
2018-12-16T19:11:29.985Z,16.40
2018-12-16T19:13:58.877Z,16.17
2018-12-16T19:16:28.656Z,16.00
2018-12-16T19:18:57.970Z,15.07
2018-12-16T19:21:27.106Z,15.37
2018-12-16T19:23:56.084Z,15.87
2018-12-16T19:26:25.018Z,15.43
2018-12-16T19:28:53.953Z,14.93
2018-12-16T19:31:22.833Z,15.50
2018-12-16T19:33:51.852Z,14.83
2018-12-16T19:36:20.818Z,15.47
2018-12-16T19:38:49.728Z,15.03
2018-12-16T19:41:18.611Z,14.97
2018-12-16T19:43:47.508Z,14.33
2018-12-16T19:46:16.592Z,13.57
2018-12-16T19:48:45.468Z,13.43
2018-12-16T19:51:14.480Z,15.33
2018-12-16T19:53:43.452Z,15.07
2018-12-16T19:56:12.276Z,13.43
2018-12-16T19:58:41.210Z,12.87
2018-12-16T20:01:10.130Z,13.43
2018-12-16T20:03:43.281Z,13.67
2018-12-16T20:06:17.576Z,12.33
2018-12-16T20:08:46.409Z,12.40
2018-12-16T20:11:15.317Z,12.80
2018-12-16T20:13:44.209Z,13.23
2018-12-16T20:16:13.128Z,12.97
2018-12-16T20:18:42.432Z,11.83
2018-12-16T20:21:11.314Z,12.47
2018-12-16T20:23:40.297Z,11.23
2018-12-16T20:26:09.180Z,11.90
2018-12-16T20:28:38.071Z,11.87
2018-12-16T20:31:06.951Z,11.73
2018-12-16T20:33:35.965Z,13.00
2018-12-16T20:36:04.940Z,11.43
2018-12-16T20:38:33.831Z,12.63
2018-12-16T20:41:02.850Z,12.50
2018-12-16T20:43:31.721Z,12.60
2018-12-16T20:46:00.899Z,13.13
2018-12-16T20:48:29.900Z,12.90
2018-12-16T20:50:58.724Z,12.77
2018-12-16T20:53:27.733Z,12.47
2018-12-16T20:55:56.589Z,13.70
2018-12-16T20:58:25.601Z,13.70
2018-12-16T21:00:55.415Z,13.30
2018-12-16T21:03:24.335Z,13.73
2018-12-16T21:05:53.713Z,14.00
2018-12-16T21:08:22.564Z,13.53
2018-12-16T21:10:51.452Z,15.20
2018-12-16T21:13:25.741Z,13.83
2018-12-16T21:15:59.881Z,13.43
2018-12-16T21:18:30.435Z,13.40
2018-12-16T21:20:59.400Z,14.13
2018-12-16T21:23:28.512Z,12.00
2018-12-16T21:25:57.489Z,13.37
2018-12-16T21:28:26.376Z,13.30
2018-12-16T21:30:55.262Z,12.97
2018-12-16T21:33:24.280Z,12.20
2018-12-16T21:35:53.240Z,11.80
2018-12-16T21:38:22.131Z,12.67
2018-12-16T21:40:51.025Z,12.67
2018-12-16T21:43:20.925Z,11.97
2018-12-16T21:45:49.832Z,11.30
2018-12-16T21:48:18.742Z,12.63
2018-12-16T21:50:47.717Z,12.63
2018-12-16T21:53:16.617Z,11.47
2018-12-16T21:55:45.441Z,12.50
2018-12-16T21:58:14.313Z,11.67
2018-12-16T22:00:43.277Z,11.07
2018-12-16T22:03:12.169Z,10.70
2018-12-16T22:05:41.224Z,11.63
2018-12-16T22:08:10.051Z,10.80
2018-12-16T22:10:39.014Z,11.60
2018-12-16T22:13:07.985Z,11.97
2018-12-16T22:15:37.058Z,12.03
2018-12-16T22:18:05.901Z,11.80
2018-12-16T22:20:34.982Z,10.97
2018-12-16T22:23:04.876Z,12.83
2018-12-16T22:25:33.960Z,11.47
2018-12-16T22:28:02.821Z,12.23
2018-12-16T22:30:31.829Z,11.83
2018-12-16T22:33:00.796Z,11.23
2018-12-16T22:35:29.688Z,11.83
2018-12-16T22:37:58.577Z,11.23
2018-12-16T22:40:27.809Z,10.80
2018-12-16T22:42:56.798Z,10.97
2018-12-16T22:45:25.657Z,11.00
2018-12-16T22:47:54.563Z,11.40
2018-12-16T22:50:24.478Z,11.80
2018-12-16T22:52:53.407Z,13.00
2018-12-16T22:55:22.369Z,11.63
2018-12-16T22:57:51.273Z,12.13
2018-12-16T23:00:20.283Z,11.17
2018-12-16T23:02:51.153Z,12.93
2018-12-16T23:05:20.084Z,11.40
2018-12-16T23:07:49.064Z,11.37
2018-12-16T23:10:17.957Z,13.23
2018-12-16T23:12:46.879Z,11.90
2018-12-16T23:15:15.832Z,11.70
2018-12-16T23:17:44.715Z,12.60
2018-12-16T23:20:20.173Z,11.57
2018-12-16T23:22:49.060Z,11.07
2018-12-16T23:25:17.982Z,11.00
2018-12-16T23:27:46.915Z,12.23
2018-12-16T23:30:15.824Z,12.70
2018-12-16T23:32:44.733Z,10.53
2018-12-16T23:35:13.552Z,11.20
2018-12-16T23:37:42.397Z,12.20
2018-12-16T23:40:11.300Z,12.30
2018-12-16T23:42:40.195Z,12.17
2018-12-16T23:45:09.801Z,11.13
2018-12-16T23:47:38.685Z,11.50
2018-12-16T23:50:07.830Z,11.13
2018-12-16T23:52:36.652Z,12.17
2018-12-16T23:55:06.476Z,11.37
2018-12-16T23:57:35.454Z,13.27
